Mendocino, CA

5:39 AM PST on January 23, 2017 (GMT -0800)
KCAMENDO1 | | Change Station
Active Advisory: Hazardous Seas Warning

Elev 141 ft 39.31 °N, 123.80 °W | Updated 20 seconds ago

Rain
Rain
41.0 °F
Feels Like 41 °F
N
0.0
Wind Variable Wind from NNW
Gusts 3.0 mph

Today
High -- | Low -- °F
--% Chance of Precip.
Yesterday
High -- | Low -- °F
Precip. -- in
Pressure 29.74 in
Visibility 10.0 miles
Clouds Mostly Cloudy 400 ft
Overcast 900 ft
Windchill 41 °F
Dew Point 40 °F
Humidity 95%
Rainfall 0.05 in
Snow Depth Not available.
7:29 AM 5:25 PM
Waning Crescent, 18% visible
SPECI KUKI 231303Z AUTO 00000KT 10SM BKN004 OVC009 04/03 A2974 RMK AO2 T00390033
Pressure 29.74 in
Visibility 10.0 miles
Clouds Mostly Cloudy 400 ft
Overcast 900 ft
Windchill 41 °F
Dew Point 40 °F
Humidity 95%
Rainfall 0.05 in
Snow Depth Not available.
7:29 AM 5:25 PM
Waning Crescent, 18% visible
SPECI KUKI 231303Z AUTO 00000KT 10SM BKN004 OVC009 04/03 A2974 RMK AO2 T00390033

Get Your Daily Forecast Email!

Thanks for signing up!

Be on the lookout for a verification email in your inbox.

You'll start receiving the daily forecast at 8 AM.

×

10-Day Weather Forecast

Almanac

Astronomy

Jan. 23, 2017 Rise Set
Actual Time
Civil Twilight
Nautical Twilight
Astronomical Twilight
Moon
Length of Visible Light
Length of Day
Tomorrow will be .
, % of the Moon is Illuminated

Today's Extremes

State Highs State Lows

Community

WunderPhotos

Upload Photos

1,962,540 photos uploaded!

WunderBlog® & News

Nearby

Air Quality

  Air Quality AQ Index Pollutant
Not available.

Snow Depth

Station Depth Elevation

Earthquake Activity

City Distance Mag. Time & Date
Minimum magnitude displayed is 2.5.

Coastal Water Temperatures

Place Temperature

Stations

Nearby Weather Stations

Station Location Temp. Windchill Dew Point Humidity Wind Precip. Elev Updated Type
                   

Watches & Warnings

Hazardous Seas Warning
Issued: 2:21 AM PST Jan. 23, 2017 – National Weather Service

... Hazardous seas warning in effect until 4 am PST Tuesday...

The National Weather Service in Eureka has issued a hazardous
seas warning... which is in effect until 4 am PST Tuesday. The
Small Craft Advisory is no longer in effect.

* Waves... seas will remain elevated through tonight as a westerly
swell persists. Wave heights will be around 15 to 21 feet with
wave periods of around 15 seconds.

Precautionary/preparedness actions...

A hazardous seas warning means hazardous sea conditions are
imminent or occurring. Recreational boaters should remain in
port... or take shelter until waves subside. Commercial vessels
should prepare for rough seas and consider remaining in port or
taking shelter in port until hazardous seas subside.